sensor_id;sensor_type;location;lat;lon;timestamp;pressure;altitude;pressure_sealevel;temperature;humidity
68366;BME280;55283;51.466;5.478;2023-04-12T00:00:55;100431.19;;;21.45;42.33
68366;BME280;55283;51.466;5.478;2023-04-12T00:03:21;100422.78;;;21.45;42.55
68366;BME280;55283;51.466;5.478;2023-04-12T00:05:47;100419.50;;;21.46;42.50
68366;BME280;55283;51.466;5.478;2023-04-12T00:08:13;100404.19;;;21.38;42.75
68366;BME280;55283;51.466;5.478;2023-04-12T00:10:40;100405.47;;;21.46;42.46
68366;BME280;55283;51.466;5.478;2023-04-12T00:13:05;100389.56;;;21.43;42.56
68366;BME280;55283;51.466;5.478;2023-04-12T00:15:31;100391.94;;;21.45;42.51
68366;BME280;55283;51.466;5.478;2023-04-12T00:17:57;100368.97;;;21.37;42.74
68366;BME280;55283;51.466;5.478;2023-04-12T00:20:22;100361.69;;;21.40;42.74
68366;BME280;55283;51.466;5.478;2023-04-12T00:22:48;100370.22;;;21.36;42.37
68366;BME280;55283;51.466;5.478;2023-04-12T00:25:14;100366.84;;;21.41;42.59
68366;BME280;55283;51.466;5.478;2023-04-12T00:27:39;100356.34;;;21.33;42.72
68366;BME280;55283;51.466;5.478;2023-04-12T00:30:06;100350.28;;;21.34;42.80
68366;BME280;55283;51.466;5.478;2023-04-12T00:32:32;100328.78;;;21.31;42.63
68366;BME280;55283;51.466;5.478;2023-04-12T00:34:57;100337.38;;;21.37;42.52
68366;BME280;55283;51.466;5.478;2023-04-12T00:37:23;100325.38;;;21.36;42.49
68366;BME280;55283;51.466;5.478;2023-04-12T00:39:48;100317.59;;;21.40;42.50
68366;BME280;55283;51.466;5.478;2023-04-12T00:42:14;100294.97;;;21.35;42.38
68366;BME280;55283;51.466;5.478;2023-04-12T00:44:39;100304.81;;;21.39;42.52
68366;BME280;55283;51.466;5.478;2023-04-12T00:47:05;100294.84;;;21.38;42.43
68366;BME280;55283;51.466;5.478;2023-04-12T00:49:32;100289.69;;;21.37;42.77
68366;BME280;55283;51.466;5.478;2023-04-12T00:52:06;100282.06;;;21.37;42.61
68366;BME280;55283;51.466;5.478;2023-04-12T00:54:33;100266.16;;;21.34;42.40
68366;BME280;55283;51.466;5.478;2023-04-12T00:57:02;100262.59;;;21.34;42.41
68366;BME280;55283;51.466;5.478;2023-04-12T00:59:28;100260.75;;;21.40;42.53
68366;BME280;55283;51.466;5.478;2023-04-12T01:01:54;100250.31;;;21.40;42.50
68366;BME280;55283;51.466;5.478;2023-04-12T01:04:20;100234.88;;;21.36;42.47
68366;BME280;55283;51.466;5.478;2023-04-12T01:09:47;100237.53;;;21.39;42.48
68366;BME280;55283;51.466;5.478;2023-04-12T01:14:54;100215.72;;;21.34;42.50
68366;BME280;55283;51.466;5.478;2023-04-12T01:17:26;100195.31;;;21.34;42.41
68366;BME280;55283;51.466;5.478;2023-04-12T01:20:02;100189.22;;;21.35;42.47
68366;BME280;55283;51.466;5.478;2023-04-12T01:23:01;100180.03;;;21.35;42.66
68366;BME280;55283;51.466;5.478;2023-04-12T01:28:14;100162.44;;;21.34;42.50
68366;BME280;55283;51.466;5.478;2023-04-12T01:30:45;100149.84;;;21.30;42.50
68366;BME280;55283;51.466;5.478;2023-04-12T01:33:11;100139.69;;;21.32;42.42
68366;BME280;55283;51.466;5.478;2023-04-12T01:35:38;100143.13;;;21.36;42.35
68366;BME280;55283;51.466;5.478;2023-04-12T01:38:05;100149.53;;;21.37;42.49
68366;BME280;55283;51.466;5.478;2023-04-12T01:40:31;100139.56;;;21.36;42.58
68366;BME280;55283;51.466;5.478;2023-04-12T01:43:07;100123.03;;;21.38;42.36
68366;BME280;55283;51.466;5.478;2023-04-12T01:45:33;100112.75;;;21.35;42.43
68366;BME280;55283;51.466;5.478;2023-04-12T01:48:00;100107.91;;;21.35;42.46
68366;BME280;55283;51.466;5.478;2023-04-12T01:50:39;100102.63;;;21.37;42.30
68366;BME280;55283;51.466;5.478;2023-04-12T01:53:22;100111.38;;;21.39;42.31
68366;BME280;55283;51.466;5.478;2023-04-12T01:55:48;100094.22;;;21.37;42.41
68366;BME280;55283;51.466;5.478;2023-04-12T01:58:19;100091.09;;;21.35;42.43
68366;BME280;55283;51.466;5.478;2023-04-12T02:00:45;100074.28;;;21.35;42.36
68366;BME280;55283;51.466;5.478;2023-04-12T02:03:11;100073.06;;;21.36;42.51
68366;BME280;55283;51.466;5.478;2023-04-12T02:05:38;100063.06;;;21.35;42.49
68366;BME280;55283;51.466;5.478;2023-04-12T02:08:04;100045.63;;;21.31;42.35
68366;BME280;55283;51.466;5.478;2023-04-12T02:10:31;100038.16;;;21.28;42.44
68366;BME280;55283;51.466;5.478;2023-04-12T02:13:00;100042.66;;;21.35;42.49
68366;BME280;55283;51.466;5.478;2023-04-12T02:15:28;100036.78;;;21.33;42.52
68366;BME280;55283;51.466;5.478;2023-04-12T02:17:54;100025.69;;;21.29;42.60
68366;BME280;55283;51.466;5.478;2023-04-12T02:20:20;100025.06;;;21.34;42.51
68366;BME280;55283;51.466;5.478;2023-04-12T02:22:46;100025.06;;;21.34;42.21
68366;BME280;55283;51.466;5.478;2023-04-12T02:25:12;100004.19;;;21.35;42.44
68366;BME280;55283;51.466;5.478;2023-04-12T02:27:37;100005.94;;;21.33;42.31
68366;BME280;55283;51.466;5.478;2023-04-12T02:30:03;99995.50;;;21.33;42.33
68366;BME280;55283;51.466;5.478;2023-04-12T02:32:29;99991.91;;;21.33;42.38
68366;BME280;55283;51.466;5.478;2023-04-12T02:34:55;99979.91;;;21.32;42.55
68366;BME280;55283;51.466;5.478;2023-04-12T02:37:24;99980.22;;;21.34;42.49
68366;BME280;55283;51.466;5.478;2023-04-12T02:39:51;99958.72;;;21.31;42.43
68366;BME280;55283;51.466;5.478;2023-04-12T02:42:21;99954.66;;;21.32;42.45
68366;BME280;55283;51.466;5.478;2023-04-12T02:44:46;99949.06;;;21.32;42.50
68366;BME280;55283;51.466;5.478;2023-04-12T02:47:12;99940.38;;;21.30;42.36
68366;BME280;55283;51.466;5.478;2023-04-12T02:49:37;99950.63;;;21.33;42.51
68366;BME280;55283;51.466;5.478;2023-04-12T02:52:03;99939.44;;;21.33;42.50
68366;BME280;55283;51.466;5.478;2023-04-12T02:54:28;99933.81;;;21.33;42.44
68366;BME280;55283;51.466;5.478;2023-04-12T02:56:54;99924.63;;;21.33;42.48
68366;BME280;55283;51.466;5.478;2023-04-12T02:59:19;99908.75;;;21.30;42.55
68366;BME280;55283;51.466;5.478;2023-04-12T03:01:45;99913.09;;;21.31;42.17
68366;BME280;55283;51.466;5.478;2023-04-12T03:04:11;99896.75;;;21.29;42.47
68366;BME280;55283;51.466;5.478;2023-04-12T03:06:36;99901.59;;;21.29;42.49
68366;BME280;55283;51.466;5.478;2023-04-12T03:09:04;99881.19;;;21.28;42.24
68366;BME280;55283;51.466;5.478;2023-04-12T03:11:30;99874.63;;;21.31;42.32
68366;BME280;55283;51.466;5.478;2023-04-12T03:13:56;99873.88;;;21.31;42.34
68366;BME280;55283;51.466;5.478;2023-04-12T03:16:24;99863.44;;;21.31;42.26
68366;BME280;55283;51.466;5.478;2023-04-12T03:18:50;99866.53;;;21.33;42.45
68366;BME280;55283;51.466;5.478;2023-04-12T03:21:16;99869.03;;;21.31;42.43
68366;BME280;55283;51.466;5.478;2023-04-12T03:23:42;99864.97;;;21.32;42.25
68366;BME280;55283;51.466;5.478;2023-04-12T03:26:07;99864.97;;;21.32;42.27
68366;BME280;55283;51.466;5.478;2023-04-12T03:28:33;99846.59;;;21.31;42.30
68366;BME280;55283;51.466;5.478;2023-04-12T03:30:58;99846.59;;;21.31;42.21
68366;BME280;55283;51.466;5.478;2023-04-12T03:33:25;99831.34;;;21.32;42.25
68366;BME280;55283;51.466;5.478;2023-04-12T03:35:51;99841.78;;;21.32;42.27
68366;BME280;55283;51.466;5.478;2023-04-12T03:38:16;99829.78;;;21.31;42.33
68366;BME280;55283;51.466;5.478;2023-04-12T03:40:42;99820.13;;;21.32;42.24
68366;BME280;55283;51.466;5.478;2023-04-12T03:43:07;99832.28;;;21.29;42.46
68366;BME280;55283;51.466;5.478;2023-04-12T03:45:32;99808.31;;;21.28;42.49
68366;BME280;55283;51.466;5.478;2023-04-12T03:47:58;99815.47;;;21.29;42.37
68366;BME280;55283;51.466;5.478;2023-04-12T03:50:23;99816.25;;;21.30;42.38
68366;BME280;55283;51.466;5.478;2023-04-12T03:52:49;99811.44;;;21.30;42.32
68366;BME280;55283;51.466;5.478;2023-04-12T03:55:14;99789.31;;;21.23;42.56
68366;BME280;55283;51.466;5.478;2023-04-12T03:57:42;99795.56;;;21.27;42.20
68366;BME280;55283;51.466;5.478;2023-04-12T04:00:08;99797.56;;;21.27;42.41
68366;BME280;55283;51.466;5.478;2023-04-12T04:02:34;99800.34;;;21.27;42.38
68366;BME280;55283;51.466;5.478;2023-04-12T04:05:01;99791.03;;;21.30;42.34
68366;BME280;55283;51.466;5.478;2023-04-12T04:07:28;99782.78;;;21.26;42.31
68366;BME280;55283;51.466;5.478;2023-04-12T04:09:54;99776.22;;;21.29;42.33
68366;BME280;55283;51.466;5.478;2023-04-12T04:12:19;99773.41;;;21.29;42.34
68366;BME280;55283;51.466;5.478;2023-04-12T04:14:45;99771.41;;;21.30;42.25
68366;BME280;55283;51.466;5.478;2023-04-12T04:17:10;99765.81;;;21.30;42.35
68366;BME280;55283;51.466;5.478;2023-04-12T04:19:36;99759.88;;;21.28;42.38
68366;BME280;55283;51.466;5.478;2023-04-12T04:22:01;99755.41;;;21.21;42.48
68366;BME280;55283;51.466;5.478;2023-04-12T04:24:27;99751.94;;;21.26;42.44
68366;BME280;55283;51.466;5.478;2023-04-12T04:26:53;99746.34;;;21.26;42.33
68366;BME280;55283;51.466;5.478;2023-04-12T04:29:19;99745.38;;;21.29;42.43
68366;BME280;55283;51.466;5.478;2023-04-12T04:31:44;99745.09;;;21.27;42.16
68366;BME280;55283;51.466;5.478;2023-04-12T04:34:10;99742.00;;;21.25;42.44
68366;BME280;55283;51.466;5.478;2023-04-12T04:36:36;99729.06;;;21.28;42.22
68366;BME280;55283;51.466;5.478;2023-04-12T04:39:03;99742.00;;;21.25;42.37
68366;BME280;55283;51.466;5.478;2023-04-12T04:41:31;99725.63;;;21.23;42.42
68366;BME280;55283;51.466;5.478;2023-04-12T04:43:59;99729.22;;;21.24;42.38
68366;BME280;55283;51.466;5.478;2023-04-12T04:46:25;99726.88;;;21.22;42.47
68366;BME280;55283;51.466;5.478;2023-04-12T04:48:54;99721.09;;;21.26;42.54
68366;BME280;55283;51.466;5.478;2023-04-12T04:51:20;99732.31;;;21.26;42.32
68366;BME280;55283;51.466;5.478;2023-04-12T04:53:45;99718.78;;;21.24;42.42
68366;BME280;55283;51.466;5.478;2023-04-12T04:56:11;99724.41;;;21.24;42.48
68366;BME280;55283;51.466;5.478;2023-04-12T04:58:37;99722.69;;;21.27;42.27
68366;BME280;55283;51.466;5.478;2023-04-12T05:01:02;99716.44;;;21.23;42.40
68366;BME280;55283;51.466;5.478;2023-04-12T05:03:28;99703.69;;;21.22;42.59
68366;BME280;55283;51.466;5.478;2023-04-12T05:05:54;99701.84;;;21.19;42.60
68366;BME280;55283;51.466;5.478;2023-04-12T05:08:21;99699.63;;;21.23;42.33
68366;BME280;55283;51.466;5.478;2023-04-12T05:10:53;99702.44;;;21.23;42.56
68366;BME280;55283;51.466;5.478;2023-04-12T05:13:18;99700.91;;;21.22;42.38
68366;BME280;55283;51.466;5.478;2023-04-12T05:15:45;99699.34;;;21.21;42.50
68366;BME280;55283;51.466;5.478;2023-04-12T05:18:10;99696.56;;;21.21;42.51
68366;BME280;55283;51.466;5.478;2023-04-12T05:20:39;99690.94;;;21.21;42.45
68366;BME280;55283;51.466;5.478;2023-04-12T05:23:05;99695.28;;;21.22;42.40
68366;BME280;55283;51.466;5.478;2023-04-12T05:25:30;99682.69;;;21.17;42.44
68366;BME280;55283;51.466;5.478;2023-04-12T05:27:57;99681.91;;;21.17;42.49
68366;BME280;55283;51.466;5.478;2023-04-12T05:30:22;99682.53;;;21.21;42.54
68366;BME280;55283;51.466;5.478;2023-04-12T05:32:48;99688.25;;;21.27;42.82
68366;BME280;55283;51.466;5.478;2023-04-12T05:35:13;99691.25;;;21.14;42.61
68366;BME280;55283;51.466;5.478;2023-04-12T05:37:39;99675.06;;;21.18;43.34
68366;BME280;55283;51.466;5.478;2023-04-12T05:40:04;99685.50;;;21.17;43.12
68366;BME280;55283;51.466;5.478;2023-04-12T05:42:31;99676.63;;;21.10;43.50
68366;BME280;55283;51.466;5.478;2023-04-12T05:44:57;99661.25;;;21.05;43.61
68366;BME280;55283;51.466;5.478;2023-04-12T05:47:22;99669.19;;;21.07;43.78
68366;BME280;55283;51.466;5.478;2023-04-12T05:49:47;99680.06;;;21.05;43.63
68366;BME280;55283;51.466;5.478;2023-04-12T05:52:13;99679.91;;;21.08;43.83
68366;BME280;55283;51.466;5.478;2023-04-12T05:54:38;99679.13;;;21.17;43.81
68366;BME280;55283;51.466;5.478;2023-04-12T05:57:04;99682.34;;;21.24;44.15
68366;BME280;55283;51.466;5.478;2023-04-12T05:59:29;99680.63;;;21.27;43.27
68366;BME280;55283;51.466;5.478;2023-04-12T06:01:55;99683.94;;;21.16;44.14
68366;BME280;55283;51.466;5.478;2023-04-12T06:04:21;99681.88;;;21.26;43.80
68366;BME280;55283;51.466;5.478;2023-04-12T06:06:46;99674.53;;;21.29;44.55
68366;BME280;55283;51.466;5.478;2023-04-12T06:09:12;99675.94;;;21.33;44.58
68366;BME280;55283;51.466;5.478;2023-04-12T06:11:38;99660.97;;;21.36;44.43
68366;BME280;55283;51.466;5.478;2023-04-12T06:14:05;99670.31;;;21.33;44.50
68366;BME280;55283;51.466;5.478;2023-04-12T06:16:30;99675.97;;;21.24;43.26
68366;BME280;55283;51.466;5.478;2023-04-12T06:18:55;99666.66;;;21.18;44.17
68366;BME280;55283;51.466;5.478;2023-04-12T06:21:21;99662.78;;;21.15;44.50
68366;BME280;55283;51.466;5.478;2023-04-12T06:23:47;99655.00;;;21.10;44.57
68366;BME280;55283;51.466;5.478;2023-04-12T06:26:13;99674.44;;;21.14;44.70
68366;BME280;55283;51.466;5.478;2023-04-12T06:28:39;99670.09;;;21.13;44.66
68366;BME280;55283;51.466;5.478;2023-04-12T06:31:04;99657.97;;;21.16;44.79
68366;BME280;55283;51.466;5.478;2023-04-12T06:33:31;99661.69;;;21.13;44.86
68366;BME280;55283;51.466;5.478;2023-04-12T06:35:56;99661.25;;;21.05;45.13
68366;BME280;55283;51.466;5.478;2023-04-12T06:38:22;99650.81;;;21.06;44.77
68366;BME280;55283;51.466;5.478;2023-04-12T06:40:47;99650.03;;;21.05;44.86
68366;BME280;55283;51.466;5.478;2023-04-12T06:43:15;99646.59;;;21.10;44.88
68366;BME280;55283;51.466;5.478;2023-04-12T06:45:43;99641.94;;;21.07;45.20
68366;BME280;55283;51.466;5.478;2023-04-12T06:48:08;99642.72;;;21.08;45.13
68366;BME280;55283;51.466;5.478;2023-04-12T06:50:34;99642.41;;;21.06;44.97
68366;BME280;55283;51.466;5.478;2023-04-12T06:52:59;99647.72;;;21.03;45.31
68366;BME280;55283;51.466;5.478;2023-04-12T06:55:25;99649.25;;;21.05;45.18
68366;BME280;55283;51.466;5.478;2023-04-12T06:57:53;99644.13;;;21.03;45.42
68366;BME280;55283;51.466;5.478;2023-04-12T07:00:18;99645.38;;;21.02;45.33
68366;BME280;55283;51.466;5.478;2023-04-12T07:02:44;99660.94;;;21.03;45.38
68366;BME280;55283;51.466;5.478;2023-04-12T07:05:09;99653.47;;;21.00;45.31
68366;BME280;55283;51.466;5.478;2023-04-12T07:07:35;99650.03;;;21.05;45.20
68366;BME280;55283;51.466;5.478;2023-04-12T07:10:00;99653.00;;;21.01;45.02
68366;BME280;55283;51.466;5.478;2023-04-12T07:12:27;99642.94;;;20.95;45.45
68366;BME280;55283;51.466;5.478;2023-04-12T07:14:52;99649.75;;;20.94;45.23
68366;BME280;55283;51.466;5.478;2023-04-12T07:17:18;99648.53;;;20.95;45.24
68366;BME280;55283;51.466;5.478;2023-04-12T07:19:45;99651.75;;;21.02;45.38
68366;BME280;55283;51.466;5.478;2023-04-12T07:22:11;99648.63;;;21.00;45.07
68366;BME280;55283;51.466;5.478;2023-04-12T07:24:36;99654.72;;;20.99;45.28
68366;BME280;55283;51.466;5.478;2023-04-12T07:27:02;99649.91;;;20.99;45.14
68366;BME280;55283;51.466;5.478;2023-04-12T07:29:28;99657.97;;;21.07;45.01
68366;BME280;55283;51.466;5.478;2023-04-12T07:31:53;99658.13;;;21.03;45.02
68366;BME280;55283;51.466;5.478;2023-04-12T07:34:19;99646.63;;;21.01;45.00
68366;BME280;55283;51.466;5.478;2023-04-12T07:36:44;99666.84;;;21.05;45.19
68366;BME280;55283;51.466;5.478;2023-04-12T07:39:10;99652.69;;;20.99;45.05
68366;BME280;55283;51.466;5.478;2023-04-12T07:41:39;99647.41;;;21.01;45.23
68366;BME280;55283;51.466;5.478;2023-04-12T07:44:06;99646.91;;;21.03;45.09
68366;BME280;55283;51.466;5.478;2023-04-12T07:46:32;99642.13;;;21.03;45.27
68366;BME280;55283;51.466;5.478;2023-04-12T07:48:57;99637.09;;;21.08;45.11
68366;BME280;55283;51.466;5.478;2023-04-12T07:51:22;99638.06;;;21.05;45.21
68366;BME280;55283;51.466;5.478;2023-04-12T07:53:48;99635.44;;;21.01;45.12
68366;BME280;55283;51.466;5.478;2023-04-12T07:56:13;99638.06;;;21.05;45.14
68366;BME280;55283;51.466;5.478;2023-04-12T07:58:39;99640.72;;;20.99;45.05
68366;BME280;55283;51.466;5.478;2023-04-12T08:01:05;99642.72;;;21.08;45.05
68366;BME280;55283;51.466;5.478;2023-04-12T08:03:31;99649.25;;;21.05;44.92
68366;BME280;55283;51.466;5.478;2023-04-12T08:05:58;99644.28;;;20.99;45.05
68366;BME280;55283;51.466;5.478;2023-04-12T08:08:24;99638.66;;;21.09;45.11
68366;BME280;55283;51.466;5.478;2023-04-12T08:10:51;99654.50;;;21.12;44.84
68366;BME280;55283;51.466;5.478;2023-04-12T08:13:16;99649.09;;;21.08;45.08
68366;BME280;55283;51.466;5.478;2023-04-12T08:15:42;99648.31;;;21.08;45.08
68366;BME280;55283;51.466;5.478;2023-04-12T08:18:08;99652.97;;;21.11;44.95
68366;BME280;55283;51.466;5.478;2023-04-12T08:20:34;99662.13;;;21.11;45.01
68366;BME280;55283;51.466;5.478;2023-04-12T08:23:00;99656.22;;;21.09;44.82
68366;BME280;55283;51.466;5.478;2023-04-12T08:25:25;99664.78;;;21.15;44.85
68366;BME280;55283;51.466;5.478;2023-04-12T08:27:52;99654.81;;;21.14;44.90
68366;BME280;55283;51.466;5.478;2023-04-12T08:30:18;99656.69;;;21.17;44.81
68366;BME280;55283;51.466;5.478;2023-04-12T08:32:43;99655.28;;;21.21;44.81
68366;BME280;55283;51.466;5.478;2023-04-12T08:35:09;99652.75;;;21.23;44.86
68366;BME280;55283;51.466;5.478;2023-04-12T08:37:35;99665.81;;;21.27;44.91
68366;BME280;55283;51.466;5.478;2023-04-12T08:40:07;99666.63;;;21.27;44.85
68366;BME280;55283;51.466;5.478;2023-04-12T08:42:34;99658.22;;;21.27;44.98
68366;BME280;55283;51.466;5.478;2023-04-12T08:45:05;99654.47;;;21.30;44.83
68366;BME280;55283;51.466;5.478;2023-04-12T08:47:33;99645.88;;;21.34;44.89
68366;BME280;55283;51.466;5.478;2023-04-12T08:50:00;99644.13;;;21.36;44.70
68366;BME280;55283;51.466;5.478;2023-04-12T08:52:27;99648.50;;;21.37;44.69
68366;BME280;55283;51.466;5.478;2023-04-12T08:54:54;99644.72;;;21.40;44.65
68366;BME280;55283;51.466;5.478;2023-04-12T08:57:20;99649.25;;;21.38;44.83
68366;BME280;55283;51.466;5.478;2023-04-12T08:59:46;99650.97;;;21.35;45.07
68366;BME280;55283;51.466;5.478;2023-04-12T09:02:14;99648.50;;;21.37;45.28
68366;BME280;55283;51.466;5.478;2023-04-12T09:04:49;99636.06;;;21.29;45.30
68366;BME280;55283;51.466;5.478;2023-04-12T09:07:15;99636.50;;;21.37;45.21
68366;BME280;55283;51.466;5.478;2023-04-12T09:09:45;99646.16;;;21.36;45.44
68366;BME280;55283;51.466;5.478;2023-04-12T09:12:12;99636.50;;;21.37;45.35
68366;BME280;55283;51.466;5.478;2023-04-12T09:14:38;99636.81;;;21.39;45.52
68366;BME280;55283;51.466;5.478;2023-04-12T09:17:19;99629.16;;;21.39;45.37
68366;BME280;55283;51.466;5.478;2023-04-12T09:19:45;99618.13;;;21.36;45.46
68366;BME280;55283;51.466;5.478;2023-04-12T09:22:10;99617.34;;;21.35;45.23
68366;BME280;55283;51.466;5.478;2023-04-12T09:24:49;99613.44;;;21.42;45.29
68366;BME280;55283;51.466;5.478;2023-04-12T09:27:17;99617.31;;;21.44;45.32
68366;BME280;55283;51.466;5.478;2023-04-12T09:29:45;99625.72;;;21.44;45.28
68366;BME280;55283;51.466;5.478;2023-04-12T09:32:23;99621.34;;;21.43;45.30
68366;BME280;55283;51.466;5.478;2023-04-12T09:34:55;99630.84;;;21.46;45.23
68366;BME280;55283;51.466;5.478;2023-04-12T09:37:22;99626.94;;;21.43;45.36
68366;BME280;55283;51.466;5.478;2023-04-12T09:39:58;99628.78;;;21.46;45.29
68366;BME280;55283;51.466;5.478;2023-04-12T09:42:24;99626.50;;;21.45;45.22
68366;BME280;55283;51.466;5.478;2023-04-12T09:44:49;99621.66;;;21.45;45.24
68366;BME280;55283;51.466;5.478;2023-04-12T09:47:15;99626.75;;;21.47;45.14
68366;BME280;55283;51.466;5.478;2023-04-12T09:49:42;99615.28;;;21.45;44.90
68366;BME280;55283;51.466;5.478;2023-04-12T09:52:10;99601.53;;;21.47;45.04
68366;BME280;55283;51.466;5.478;2023-04-12T09:54:46;99604.25;;;21.41;45.12
68366;BME280;55283;51.466;5.478;2023-04-12T09:57:16;99603.88;;;21.48;45.42
68366;BME280;55283;51.466;5.478;2023-04-12T09:59:43;99606.69;;;21.48;44.96
68366;BME280;55283;51.466;5.478;2023-04-12T10:02:21;99603.56;;;21.46;45.00
68366;BME280;55283;51.466;5.478;2023-04-12T10:04:50;99585.41;;;21.42;45.33
68366;BME280;55283;51.466;5.478;2023-04-12T10:07:17;99583.66;;;21.44;45.26
68366;BME280;55283;51.466;5.478;2023-04-12T10:09:43;99588.19;;;21.42;45.18
68366;BME280;55283;51.466;5.478;2023-04-12T10:12:09;99597.19;;;21.46;45.41
68366;BME280;55283;51.466;5.478;2023-04-12T10:14:36;99604.34;;;21.47;45.56
68366;BME280;55283;51.466;5.478;2023-04-12T10:17:03;99619.84;;;21.57;46.01
68366;BME280;55283;51.466;5.478;2023-04-12T10:19:30;99624.69;;;21.57;46.58
68366;BME280;55283;51.466;5.478;2023-04-12T10:21:58;99617.34;;;21.59;45.93
68366;BME280;55283;51.466;5.478;2023-04-12T10:24:26;99605.53;;;21.55;46.35
68366;BME280;55283;51.466;5.478;2023-04-12T10:26:53;99600.59;;;21.50;46.07
68366;BME280;55283;51.466;5.478;2023-04-12T10:31:56;99609.09;;;21.56;46.16
68366;BME280;55283;51.466;5.478;2023-04-12T10:34:29;99602.91;;;21.52;46.23
68366;BME280;55283;51.466;5.478;2023-04-12T10:36:59;99625.66;;;21.54;46.17
68366;BME280;55283;51.466;5.478;2023-04-12T10:39:50;99629.22;;;21.54;46.29
68366;BME280;55283;51.466;5.478;2023-04-12T10:44:52;99622.84;;;21.54;46.25
68366;BME280;55283;51.466;5.478;2023-04-12T10:50:25;99632.81;;;21.55;46.10
68366;BME280;55283;51.466;5.478;2023-04-12T10:55:41;99637.63;;;21.54;46.17
68366;BME280;55283;51.466;5.478;2023-04-12T10:58:08;99644.50;;;21.53;46.10
68366;BME280;55283;51.466;5.478;2023-04-12T11:03:22;99647.31;;;21.53;46.22
68366;BME280;55283;51.466;5.478;2023-04-12T11:08:30;99637.34;;;21.52;45.93
68366;BME280;55283;51.466;5.478;2023-04-12T11:11:01;99649.94;;;21.57;46.08
68366;BME280;55283;51.466;5.478;2023-04-12T11:13:33;99660.38;;;21.56;46.14
68366;BME280;55283;51.466;5.478;2023-04-12T11:16:04;99658.34;;;21.57;45.81
68366;BME280;55283;51.466;5.478;2023-04-12T11:18:32;99654.78;;;21.56;46.06
68366;BME280;55283;51.466;5.478;2023-04-12T11:20:58;99664.72;;;21.57;45.84
68366;BME280;55283;51.466;5.478;2023-04-12T11:23:24;99661.16;;;21.57;45.91
68366;BME280;55283;51.466;5.478;2023-04-12T11:25:50;99667.06;;;21.59;45.62
68366;BME280;55283;51.466;5.478;2023-04-12T11:28:19;99661.34;;;21.53;45.85
68366;BME280;55283;51.466;5.478;2023-04-12T11:30:57;99661.16;;;21.57;45.89
68366;BME280;55283;51.466;5.478;2023-04-12T11:33:39;99661.72;;;21.61;45.66
68366;BME280;55283;51.466;5.478;2023-04-12T11:36:07;99651.97;;;21.56;45.71
68366;BME280;55283;51.466;5.478;2023-04-12T11:38:35;99653.50;;;21.57;45.61
68366;BME280;55283;51.466;5.478;2023-04-12T11:41:02;99654.78;;;21.56;45.78
68366;BME280;55283;51.466;5.478;2023-04-12T11:43:28;99654.66;;;21.51;45.71
68366;BME280;55283;51.466;5.478;2023-04-12T11:45:59;99644.66;;;21.50;45.81
68366;BME280;55283;51.466;5.478;2023-04-12T11:48:26;99647.31;;;21.53;45.90
68366;BME280;55283;51.466;5.478;2023-04-12T11:50:52;99641.22;;;21.55;45.84
68366;BME280;55283;51.466;5.478;2023-04-12T11:53:18;99638.09;;;21.53;45.67
68366;BME280;55283;51.466;5.478;2023-04-12T11:55:49;99646.81;;;21.55;45.66
68366;BME280;55283;51.466;5.478;2023-04-12T11:58:16;99649.94;;;21.57;45.84
68366;BME280;55283;51.466;5.478;2023-04-12T12:00:43;99643.56;;;21.56;45.71
68366;BME280;55283;51.466;5.478;2023-04-12T12:03:10;99647.25;;;21.62;45.66
68366;BME280;55283;51.466;5.478;2023-04-12T12:05:37;99648.97;;;21.60;45.60
68366;BME280;55283;51.466;5.478;2023-04-12T12:08:03;99654.28;;;21.58;45.68
68366;BME280;55283;51.466;5.478;2023-04-12T12:10:32;99647.59;;;21.55;45.69
68366;BME280;55283;51.466;5.478;2023-04-12T12:12:59;99651.47;;;21.58;45.54
68366;BME280;55283;51.466;5.478;2023-04-12T12:15:31;99678.16;;;21.53;45.64
68366;BME280;55283;51.466;5.478;2023-04-12T12:17:56;99700.41;;;21.57;45.65
68366;BME280;55283;51.466;5.478;2023-04-12T12:20:22;99710.34;;;21.58;45.57
68366;BME280;55283;51.466;5.478;2023-04-12T12:22:49;99712.84;;;21.56;45.54
68366;BME280;55283;51.466;5.478;2023-04-12T12:25:16;99716.47;;;21.56;45.50
68366;BME280;55283;51.466;5.478;2023-04-12T12:27:42;99718.00;;;21.57;45.35
68366;BME280;55283;51.466;5.478;2023-04-12T12:30:15;99720.34;;;21.59;45.32
68366;BME280;55283;51.466;5.478;2023-04-12T12:32:41;99717.22;;;21.57;45.45
68366;BME280;55283;51.466;5.478;2023-04-12T12:35:13;99710.84;;;21.56;45.31
68366;BME280;55283;51.466;5.478;2023-04-12T12:37:52;99698.69;;;21.59;45.23
68366;BME280;55283;51.466;5.478;2023-04-12T12:40:30;99694.97;;;21.53;45.34
68366;BME280;55283;51.466;5.478;2023-04-12T12:42:57;99684.22;;;21.52;45.64
68366;BME280;55283;51.466;5.478;2023-04-12T12:45:24;99683.44;;;21.51;45.60
68366;BME280;55283;51.466;5.478;2023-04-12T12:47:52;99679.13;;;21.50;45.70
68366;BME280;55283;51.466;5.478;2023-04-12T12:50:21;99674.84;;;21.55;45.46
68366;BME280;55283;51.466;5.478;2023-04-12T12:52:47;99674.28;;;21.51;45.59
68366;BME280;55283;51.466;5.478;2023-04-12T12:55:14;99675.63;;;21.55;45.33
68366;BME280;55283;51.466;5.478;2023-04-12T12:57:44;99672.06;;;21.55;45.33
68366;BME280;55283;51.466;5.478;2023-04-12T13:00:14;99674.84;;;21.55;45.20
68366;BME280;55283;51.466;5.478;2023-04-12T13:02:41;99672.38;;;21.57;45.38
68366;BME280;55283;51.466;5.478;2023-04-12T13:05:08;99673.91;;;21.58;45.23
68366;BME280;55283;51.466;5.478;2023-04-12T13:07:34;99681.84;;;21.59;45.15
68366;BME280;55283;51.466;5.478;2023-04-12T13:09:59;99686.06;;;21.55;45.16
68366;BME280;55283;51.466;5.478;2023-04-12T13:12:25;99683.28;;;21.55;45.20
68366;BME280;55283;51.466;5.478;2023-04-12T13:14:51;99694.78;;;21.57;45.15
68366;BME280;55283;51.466;5.478;2023-04-12T13:17:17;99685.13;;;21.58;45.21
68366;BME280;55283;51.466;5.478;2023-04-12T13:19:44;99688.56;;;21.53;45.21
68366;BME280;55283;51.466;5.478;2023-04-12T13:22:11;99718.94;;;21.54;45.27